sensor_id;sensor_type;location;lat;lon;timestamp;P1;durP1;ratioP1;P2;durP2;ratioP2
2850;SDS011;1433;49.976;8.342;2024-01-06T00:02:16;3.40;;;3.10;;
2850;SDS011;1433;49.976;8.342;2024-01-06T00:04:42;6.17;;;3.40;;
2850;SDS011;1433;49.976;8.342;2024-01-06T00:07:09;3.50;;;2.63;;
2850;SDS011;1433;49.976;8.342;2024-01-06T00:09:35;3.93;;;3.20;;
2850;SDS011;1433;49.976;8.342;2024-01-06T00:12:01;3.07;;;2.70;;
2850;SDS011;1433;49.976;8.342;2024-01-06T00:14:28;3.57;;;3.07;;
2850;SDS011;1433;49.976;8.342;2024-01-06T00:16:54;3.60;;;3.03;;
2850;SDS011;1433;49.976;8.342;2024-01-06T00:19:20;9.23;;;3.73;;
2850;SDS011;1433;49.976;8.342;2024-01-06T00:21:46;3.33;;;2.97;;
2850;SDS011;1433;49.976;8.342;2024-01-06T00:24:12;8.13;;;4.10;;
2850;SDS011;1433;49.976;8.342;2024-01-06T00:26:38;11.00;;;3.53;;
2850;SDS011;1433;49.976;8.342;2024-01-06T00:29:04;4.37;;;2.47;;
2850;SDS011;1433;49.976;8.342;2024-01-06T00:31:31;4.97;;;3.13;;
2850;SDS011;1433;49.976;8.342;2024-01-06T00:33:57;7.23;;;3.27;;
2850;SDS011;1433;49.976;8.342;2024-01-06T00:36:23;4.10;;;3.60;;
2850;SDS011;1433;49.976;8.342;2024-01-06T00:38:49;4.13;;;2.80;;
2850;SDS011;1433;49.976;8.342;2024-01-06T00:41:15;4.83;;;3.07;;
2850;SDS011;1433;49.976;8.342;2024-01-06T00:43:42;3.63;;;3.33;;
2850;SDS011;1433;49.976;8.342;2024-01-06T00:46:08;3.87;;;3.03;;
2850;SDS011;1433;49.976;8.342;2024-01-06T00:48:34;11.27;;;2.90;;
2850;SDS011;1433;49.976;8.342;2024-01-06T00:51:00;8.03;;;2.83;;
2850;SDS011;1433;49.976;8.342;2024-01-06T00:53:26;6.30;;;3.33;;
2850;SDS011;1433;49.976;8.342;2024-01-06T00:55:53;3.97;;;2.90;;
2850;SDS011;1433;49.976;8.342;2024-01-06T00:58:19;4.30;;;2.90;;
2850;SDS011;1433;49.976;8.342;2024-01-06T01:00:45;3.33;;;3.07;;
2850;SDS011;1433;49.976;8.342;2024-01-06T01:03:12;6.83;;;3.40;;
2850;SDS011;1433;49.976;8.342;2024-01-06T01:05:38;2.93;;;2.60;;
2850;SDS011;1433;49.976;8.342;2024-01-06T01:08:04;3.77;;;2.47;;
2850;SDS011;1433;49.976;8.342;2024-01-06T01:10:31;2.70;;;2.50;;
2850;SDS011;1433;49.976;8.342;2024-01-06T01:12:57;2.57;;;2.07;;
2850;SDS011;1433;49.976;8.342;2024-01-06T01:15:23;5.50;;;2.90;;
2850;SDS011;1433;49.976;8.342;2024-01-06T01:17:49;3.20;;;2.80;;
2850;SDS011;1433;49.976;8.342;2024-01-06T01:20:15;4.30;;;2.90;;
2850;SDS011;1433;49.976;8.342;2024-01-06T01:22:41;5.00;;;3.70;;
2850;SDS011;1433;49.976;8.342;2024-01-06T01:25:08;5.37;;;3.47;;
2850;SDS011;1433;49.976;8.342;2024-01-06T01:27:34;4.20;;;2.53;;
2850;SDS011;1433;49.976;8.342;2024-01-06T01:30:00;2.40;;;2.20;;
2850;SDS011;1433;49.976;8.342;2024-01-06T01:32:27;8.83;;;3.27;;
2850;SDS011;1433;49.976;8.342;2024-01-06T01:34:53;4.03;;;2.77;;
2850;SDS011;1433;49.976;8.342;2024-01-06T01:37:19;6.20;;;4.70;;
2850;SDS011;1433;49.976;8.342;2024-01-06T01:39:45;8.83;;;3.10;;
2850;SDS011;1433;49.976;8.342;2024-01-06T01:42:11;2.50;;;2.30;;
2850;SDS011;1433;49.976;8.342;2024-01-06T01:44:38;2.83;;;2.63;;
2850;SDS011;1433;49.976;8.342;2024-01-06T01:47:04;2.30;;;2.10;;
2850;SDS011;1433;49.976;8.342;2024-01-06T01:49:31;16.00;;;2.80;;
2850;SDS011;1433;49.976;8.342;2024-01-06T01:51:58;3.63;;;2.23;;
2850;SDS011;1433;49.976;8.342;2024-01-06T01:54:24;3.90;;;2.80;;
2850;SDS011;1433;49.976;8.342;2024-01-06T01:56:51;4.10;;;2.33;;
2850;SDS011;1433;49.976;8.342;2024-01-06T01:59:18;8.40;;;3.00;;
2850;SDS011;1433;49.976;8.342;2024-01-06T02:01:45;2.77;;;2.57;;
2850;SDS011;1433;49.976;8.342;2024-01-06T02:04:12;4.63;;;2.47;;
2850;SDS011;1433;49.976;8.342;2024-01-06T02:06:38;3.33;;;2.53;;
2850;SDS011;1433;49.976;8.342;2024-01-06T02:09:04;3.20;;;2.37;;
2850;SDS011;1433;49.976;8.342;2024-01-06T02:11:31;2.30;;;2.10;;
2850;SDS011;1433;49.976;8.342;2024-01-06T02:13:57;6.43;;;2.43;;
2850;SDS011;1433;49.976;8.342;2024-01-06T02:16:23;5.67;;;3.53;;
2850;SDS011;1433;49.976;8.342;2024-01-06T02:18:50;4.60;;;2.90;;
2850;SDS011;1433;49.976;8.342;2024-01-06T02:21:16;4.03;;;2.53;;
2850;SDS011;1433;49.976;8.342;2024-01-06T02:23:43;3.47;;;2.70;;
2850;SDS011;1433;49.976;8.342;2024-01-06T02:26:10;7.87;;;3.87;;
2850;SDS011;1433;49.976;8.342;2024-01-06T02:28:37;3.87;;;3.00;;
2850;SDS011;1433;49.976;8.342;2024-01-06T02:31:03;4.93;;;2.43;;
2850;SDS011;1433;49.976;8.342;2024-01-06T02:33:29;2.77;;;2.57;;
2850;SDS011;1433;49.976;8.342;2024-01-06T02:35:55;10.23;;;3.20;;
2850;SDS011;1433;49.976;8.342;2024-01-06T02:38:21;3.57;;;2.37;;
2850;SDS011;1433;49.976;8.342;2024-01-06T02:40:47;6.43;;;3.80;;
2850;SDS011;1433;49.976;8.342;2024-01-06T02:43:13;3.60;;;2.30;;
2850;SDS011;1433;49.976;8.342;2024-01-06T02:45:39;4.10;;;2.63;;
2850;SDS011;1433;49.976;8.342;2024-01-06T02:48:05;3.53;;;3.23;;
2850;SDS011;1433;49.976;8.342;2024-01-06T02:50:32;2.30;;;2.10;;
2850;SDS011;1433;49.976;8.342;2024-01-06T02:53:00;2.57;;;2.37;;
2850;SDS011;1433;49.976;8.342;2024-01-06T02:55:26;5.00;;;2.33;;
2850;SDS011;1433;49.976;8.342;2024-01-06T02:57:52;6.50;;;3.43;;
2850;SDS011;1433;49.976;8.342;2024-01-06T03:00:18;2.40;;;2.20;;
2850;SDS011;1433;49.976;8.342;2024-01-06T03:02:44;7.00;;;2.27;;
2850;SDS011;1433;49.976;8.342;2024-01-06T03:05:11;4.23;;;2.43;;
2850;SDS011;1433;49.976;8.342;2024-01-06T03:07:37;3.37;;;2.70;;
2850;SDS011;1433;49.976;8.342;2024-01-06T03:10:03;3.80;;;2.30;;
2850;SDS011;1433;49.976;8.342;2024-01-06T03:12:30;3.40;;;3.07;;
2850;SDS011;1433;49.976;8.342;2024-01-06T03:14:56;2.47;;;2.17;;
2850;SDS011;1433;49.976;8.342;2024-01-06T03:17:22;5.30;;;2.60;;
2850;SDS011;1433;49.976;8.342;2024-01-06T03:19:48;3.43;;;2.90;;
2850;SDS011;1433;49.976;8.342;2024-01-06T03:22:14;4.57;;;2.50;;
2850;SDS011;1433;49.976;8.342;2024-01-06T03:24:40;2.60;;;2.37;;
2850;SDS011;1433;49.976;8.342;2024-01-06T03:27:07;3.13;;;2.80;;
2850;SDS011;1433;49.976;8.342;2024-01-06T03:29:34;3.77;;;2.83;;
2850;SDS011;1433;49.976;8.342;2024-01-06T03:32:00;3.87;;;3.13;;
2850;SDS011;1433;49.976;8.342;2024-01-06T03:34:27;3.10;;;2.77;;
2850;SDS011;1433;49.976;8.342;2024-01-06T03:36:53;3.63;;;3.30;;
2850;SDS011;1433;49.976;8.342;2024-01-06T03:39:19;3.47;;;3.00;;
2850;SDS011;1433;49.976;8.342;2024-01-06T03:41:45;6.90;;;4.30;;
2850;SDS011;1433;49.976;8.342;2024-01-06T03:44:11;8.90;;;4.13;;
2850;SDS011;1433;49.976;8.342;2024-01-06T03:46:37;3.60;;;3.07;;
2850;SDS011;1433;49.976;8.342;2024-01-06T03:49:03;4.67;;;3.37;;
2850;SDS011;1433;49.976;8.342;2024-01-06T03:51:30;3.63;;;3.30;;
2850;SDS011;1433;49.976;8.342;2024-01-06T03:53:56;4.23;;;3.83;;
2850;SDS011;1433;49.976;8.342;2024-01-06T03:56:22;4.33;;;3.57;;
2850;SDS011;1433;49.976;8.342;2024-01-06T03:58:48;3.93;;;3.07;;
2850;SDS011;1433;49.976;8.342;2024-01-06T04:01:14;3.60;;;3.30;;
2850;SDS011;1433;49.976;8.342;2024-01-06T04:03:40;6.80;;;4.80;;
2850;SDS011;1433;49.976;8.342;2024-01-06T04:06:07;6.37;;;3.73;;
2850;SDS011;1433;49.976;8.342;2024-01-06T04:08:33;8.67;;;3.97;;
2850;SDS011;1433;49.976;8.342;2024-01-06T04:10:59;4.93;;;3.70;;
2850;SDS011;1433;49.976;8.342;2024-01-06T04:13:25;5.90;;;3.90;;
2850;SDS011;1433;49.976;8.342;2024-01-06T04:15:51;4.33;;;3.00;;
2850;SDS011;1433;49.976;8.342;2024-01-06T04:18:17;5.23;;;4.73;;
2850;SDS011;1433;49.976;8.342;2024-01-06T04:20:44;4.90;;;3.83;;
2850;SDS011;1433;49.976;8.342;2024-01-06T04:23:10;5.93;;;4.00;;
2850;SDS011;1433;49.976;8.342;2024-01-06T04:25:36;8.23;;;3.70;;
2850;SDS011;1433;49.976;8.342;2024-01-06T04:28:02;4.90;;;3.63;;
2850;SDS011;1433;49.976;8.342;2024-01-06T04:30:29;7.90;;;4.33;;
2850;SDS011;1433;49.976;8.342;2024-01-06T04:32:55;5.13;;;4.43;;
2850;SDS011;1433;49.976;8.342;2024-01-06T04:35:23;10.83;;;4.70;;
2850;SDS011;1433;49.976;8.342;2024-01-06T04:37:49;5.87;;;4.17;;
2850;SDS011;1433;49.976;8.342;2024-01-06T04:40:16;4.13;;;3.30;;
2850;SDS011;1433;49.976;8.342;2024-01-06T04:42:42;5.70;;;3.63;;
2850;SDS011;1433;49.976;8.342;2024-01-06T04:45:09;6.63;;;4.30;;
2850;SDS011;1433;49.976;8.342;2024-01-06T04:47:35;4.57;;;4.00;;
2850;SDS011;1433;49.976;8.342;2024-01-06T04:50:01;7.23;;;5.40;;
2850;SDS011;1433;49.976;8.342;2024-01-06T04:52:28;4.13;;;2.83;;
2850;SDS011;1433;49.976;8.342;2024-01-06T04:54:55;5.30;;;4.20;;
2850;SDS011;1433;49.976;8.342;2024-01-06T04:57:21;6.47;;;4.60;;
2850;SDS011;1433;49.976;8.342;2024-01-06T04:59:48;3.90;;;3.50;;
2850;SDS011;1433;49.976;8.342;2024-01-06T05:02:14;6.13;;;4.70;;
2850;SDS011;1433;49.976;8.342;2024-01-06T05:04:41;5.40;;;4.00;;
2850;SDS011;1433;49.976;8.342;2024-01-06T05:07:07;3.60;;;3.30;;
2850;SDS011;1433;49.976;8.342;2024-01-06T05:09:33;5.00;;;4.07;;
2850;SDS011;1433;49.976;8.342;2024-01-06T05:11:59;6.27;;;4.17;;
2850;SDS011;1433;49.976;8.342;2024-01-06T05:14:26;7.80;;;3.90;;
2850;SDS011;1433;49.976;8.342;2024-01-06T05:16:52;4.07;;;3.70;;
2850;SDS011;1433;49.976;8.342;2024-01-06T05:19:18;4.23;;;3.40;;
2850;SDS011;1433;49.976;8.342;2024-01-06T05:21:46;5.00;;;3.77;;
2850;SDS011;1433;49.976;8.342;2024-01-06T05:24:13;7.50;;;4.10;;
2850;SDS011;1433;49.976;8.342;2024-01-06T05:26:40;4.13;;;3.53;;
2850;SDS011;1433;49.976;8.342;2024-01-06T05:29:07;5.00;;;4.30;;
2850;SDS011;1433;49.976;8.342;2024-01-06T05:31:33;8.40;;;3.57;;
2850;SDS011;1433;49.976;8.342;2024-01-06T05:33:59;3.60;;;2.83;;
2850;SDS011;1433;49.976;8.342;2024-01-06T05:36:26;3.53;;;3.23;;
2850;SDS011;1433;49.976;8.342;2024-01-06T05:38:52;6.70;;;3.77;;
2850;SDS011;1433;49.976;8.342;2024-01-06T05:41:18;5.33;;;3.50;;
2850;SDS011;1433;49.976;8.342;2024-01-06T05:43:44;4.30;;;3.93;;
2850;SDS011;1433;49.976;8.342;2024-01-06T05:46:10;9.80;;;4.20;;
2850;SDS011;1433;49.976;8.342;2024-01-06T05:48:37;5.20;;;3.57;;
2850;SDS011;1433;49.976;8.342;2024-01-06T05:51:06;10.17;;;3.80;;
2850;SDS011;1433;49.976;8.342;2024-01-06T05:53:32;3.13;;;2.93;;
2850;SDS011;1433;49.976;8.342;2024-01-06T05:55:58;4.13;;;3.10;;
2850;SDS011;1433;49.976;8.342;2024-01-06T05:58:24;5.80;;;3.43;;
2850;SDS011;1433;49.976;8.342;2024-01-06T06:00:51;2.50;;;2.20;;
2850;SDS011;1433;49.976;8.342;2024-01-06T06:03:17;2.93;;;2.70;;
2850;SDS011;1433;49.976;8.342;2024-01-06T06:05:43;5.00;;;3.33;;
2850;SDS011;1433;49.976;8.342;2024-01-06T06:08:10;2.73;;;2.50;;
2850;SDS011;1433;49.976;8.342;2024-01-06T06:10:36;4.03;;;2.50;;
2850;SDS011;1433;49.976;8.342;2024-01-06T06:13:26;2.83;;;2.60;;
2850;SDS011;1433;49.976;8.342;2024-01-06T06:15:52;5.90;;;3.60;;
2850;SDS011;1433;49.976;8.342;2024-01-06T06:18:19;3.80;;;3.50;;
2850;SDS011;1433;49.976;8.342;2024-01-06T06:20:45;3.63;;;2.00;;
2850;SDS011;1433;49.976;8.342;2024-01-06T06:23:11;2.80;;;2.60;;
2850;SDS011;1433;49.976;8.342;2024-01-06T06:25:40;3.43;;;2.30;;
2850;SDS011;1433;49.976;8.342;2024-01-06T06:28:06;2.90;;;2.70;;
2850;SDS011;1433;49.976;8.342;2024-01-06T06:30:32;5.43;;;2.80;;
2850;SDS011;1433;49.976;8.342;2024-01-06T06:32:59;4.80;;;2.87;;
2850;SDS011;1433;49.976;8.342;2024-01-06T06:35:25;3.43;;;2.70;;
2850;SDS011;1433;49.976;8.342;2024-01-06T06:37:52;3.57;;;2.40;;
2850;SDS011;1433;49.976;8.342;2024-01-06T06:40:18;4.70;;;2.50;;
2850;SDS011;1433;49.976;8.342;2024-01-06T06:42:44;4.03;;;3.50;;
2850;SDS011;1433;49.976;8.342;2024-01-06T06:45:10;3.20;;;2.70;;
2850;SDS011;1433;49.976;8.342;2024-01-06T06:47:39;3.93;;;2.80;;
2850;SDS011;1433;49.976;8.342;2024-01-06T06:50:05;2.80;;;2.60;;
2850;SDS011;1433;49.976;8.342;2024-01-06T06:52:32;2.20;;;2.00;;
2850;SDS011;1433;49.976;8.342;2024-01-06T06:54:58;2.40;;;2.20;;
2850;SDS011;1433;49.976;8.342;2024-01-06T06:57:24;4.73;;;3.10;;
2850;SDS011;1433;49.976;8.342;2024-01-06T06:59:50;2.83;;;2.63;;
2850;SDS011;1433;49.976;8.342;2024-01-06T07:02:16;2.07;;;1.87;;
2850;SDS011;1433;49.976;8.342;2024-01-06T07:04:42;6.13;;;2.93;;
2850;SDS011;1433;49.976;8.342;2024-01-06T07:07:09;3.57;;;3.20;;
2850;SDS011;1433;49.976;8.342;2024-01-06T07:09:35;2.77;;;2.50;;
2850;SDS011;1433;49.976;8.342;2024-01-06T07:12:01;2.40;;;2.20;;
2850;SDS011;1433;49.976;8.342;2024-01-06T07:14:28;3.50;;;3.13;;
2850;SDS011;1433;49.976;8.342;2024-01-06T07:16:54;3.37;;;2.53;;
2850;SDS011;1433;49.976;8.342;2024-01-06T07:19:20;3.97;;;2.97;;
2850;SDS011;1433;49.976;8.342;2024-01-06T07:21:47;4.13;;;3.30;;
2850;SDS011;1433;49.976;8.342;2024-01-06T07:24:14;3.67;;;2.40;;
2850;SDS011;1433;49.976;8.342;2024-01-06T07:26:40;2.23;;;2.13;;
2850;SDS011;1433;49.976;8.342;2024-01-06T07:29:07;3.80;;;2.53;;
2850;SDS011;1433;49.976;8.342;2024-01-06T07:31:34;4.50;;;2.63;;
2850;SDS011;1433;49.976;8.342;2024-01-06T07:34:00;2.60;;;2.33;;
2850;SDS011;1433;49.976;8.342;2024-01-06T07:36:26;4.07;;;3.00;;
2850;SDS011;1433;49.976;8.342;2024-01-06T07:38:52;13.50;;;3.20;;
2850;SDS011;1433;49.976;8.342;2024-01-06T07:41:18;2.63;;;2.27;;
2850;SDS011;1433;49.976;8.342;2024-01-06T07:43:45;8.40;;;4.07;;
2850;SDS011;1433;49.976;8.342;2024-01-06T07:46:11;4.00;;;3.27;;
2850;SDS011;1433;49.976;8.342;2024-01-06T07:48:37;3.70;;;3.13;;
2850;SDS011;1433;49.976;8.342;2024-01-06T07:51:03;3.10;;;2.80;;
2850;SDS011;1433;49.976;8.342;2024-01-06T07:53:30;4.40;;;3.53;;
2850;SDS011;1433;49.976;8.342;2024-01-06T07:55:56;4.33;;;2.80;;
2850;SDS011;1433;49.976;8.342;2024-01-06T07:58:22;8.80;;;2.70;;
2850;SDS011;1433;49.976;8.342;2024-01-06T08:00:49;2.93;;;2.60;;
2850;SDS011;1433;49.976;8.342;2024-01-06T08:03:15;3.30;;;2.90;;
2850;SDS011;1433;49.976;8.342;2024-01-06T08:05:42;3.80;;;3.50;;
2850;SDS011;1433;49.976;8.342;2024-01-06T08:08:08;8.07;;;4.60;;
2850;SDS011;1433;49.976;8.342;2024-01-06T08:10:34;18.20;;;10.53;;
2850;SDS011;1433;49.976;8.342;2024-01-06T08:13:01;15.87;;;8.63;;
2850;SDS011;1433;49.976;8.342;2024-01-06T08:15:27;10.77;;;6.77;;
2850;SDS011;1433;49.976;8.342;2024-01-06T08:17:53;18.53;;;9.00;;
2850;SDS011;1433;49.976;8.342;2024-01-06T08:20:19;6.63;;;3.50;;
2850;SDS011;1433;49.976;8.342;2024-01-06T08:22:46;4.27;;;3.17;;
2850;SDS011;1433;49.976;8.342;2024-01-06T08:25:12;7.07;;;4.17;;
2850;SDS011;1433;49.976;8.342;2024-01-06T08:27:39;3.83;;;3.50;;
2850;SDS011;1433;49.976;8.342;2024-01-06T08:30:05;4.60;;;3.23;;
2850;SDS011;1433;49.976;8.342;2024-01-06T08:32:32;4.43;;;2.80;;
2850;SDS011;1433;49.976;8.342;2024-01-06T08:34:59;3.37;;;3.00;;
2850;SDS011;1433;49.976;8.342;2024-01-06T08:37:25;6.67;;;3.87;;
2850;SDS011;1433;49.976;8.342;2024-01-06T08:39:51;3.10;;;2.90;;
2850;SDS011;1433;49.976;8.342;2024-01-06T08:42:17;4.07;;;3.73;;
2850;SDS011;1433;49.976;8.342;2024-01-06T08:44:44;5.73;;;4.67;;
2850;SDS011;1433;49.976;8.342;2024-01-06T08:47:10;5.40;;;4.70;;
2850;SDS011;1433;49.976;8.342;2024-01-06T08:49:37;5.40;;;5.00;;
2850;SDS011;1433;49.976;8.342;2024-01-06T08:52:04;4.97;;;4.50;;
2850;SDS011;1433;49.976;8.342;2024-01-06T08:54:31;4.83;;;3.93;;
2850;SDS011;1433;49.976;8.342;2024-01-06T08:56:58;6.90;;;3.90;;
2850;SDS011;1433;49.976;8.342;2024-01-06T08:59:24;4.33;;;3.80;;
2850;SDS011;1433;49.976;8.342;2024-01-06T09:01:50;5.43;;;4.33;;
2850;SDS011;1433;49.976;8.342;2024-01-06T09:04:17;3.67;;;3.33;;
2850;SDS011;1433;49.976;8.342;2024-01-06T09:06:44;6.40;;;3.70;;
2850;SDS011;1433;49.976;8.342;2024-01-06T09:09:13;7.90;;;4.23;;
2850;SDS011;1433;49.976;8.342;2024-01-06T09:11:39;5.40;;;4.20;;
2850;SDS011;1433;49.976;8.342;2024-01-06T09:14:05;4.53;;;4.13;;
2850;SDS011;1433;49.976;8.342;2024-01-06T09:16:32;4.67;;;4.33;;
2850;SDS011;1433;49.976;8.342;2024-01-06T09:18:58;4.40;;;3.63;;
2850;SDS011;1433;49.976;8.342;2024-01-06T09:21:24;4.80;;;4.30;;
2850;SDS011;1433;49.976;8.342;2024-01-06T09:23:51;4.60;;;2.97;;
2850;SDS011;1433;49.976;8.342;2024-01-06T09:26:18;5.53;;;3.87;;
2850;SDS011;1433;49.976;8.342;2024-01-06T09:28:44;4.70;;;4.20;;
2850;SDS011;1433;49.976;8.342;2024-01-06T09:31:10;5.20;;;4.73;;
2850;SDS011;1433;49.976;8.342;2024-01-06T09:33:37;5.23;;;3.40;;
2850;SDS011;1433;49.976;8.342;2024-01-06T09:36:04;2.73;;;2.53;;
2850;SDS011;1433;49.976;8.342;2024-01-06T09:38:31;3.27;;;3.00;;
2850;SDS011;1433;49.976;8.342;2024-01-06T09:40:57;3.23;;;2.80;;
2850;SDS011;1433;49.976;8.342;2024-01-06T09:43:24;6.77;;;4.30;;
2850;SDS011;1433;49.976;8.342;2024-01-06T09:46:37;4.07;;;2.63;;
2850;SDS011;1433;49.976;8.342;2024-01-06T09:48:21;5.33;;;4.13;;
2850;SDS011;1433;49.976;8.342;2024-01-06T09:50:50;7.40;;;4.90;;
2850;SDS011;1433;49.976;8.342;2024-01-06T09:53:20;3.87;;;3.03;;
2850;SDS011;1433;49.976;8.342;2024-01-06T09:55:47;6.60;;;3.70;;
2850;SDS011;1433;49.976;8.342;2024-01-06T09:58:15;3.57;;;3.27;;
2850;SDS011;1433;49.976;8.342;2024-01-06T10:00:41;3.60;;;3.30;;
2850;SDS011;1433;49.976;8.342;2024-01-06T10:03:07;3.87;;;3.57;;
2850;SDS011;1433;49.976;8.342;2024-01-06T10:05:33;4.07;;;3.50;;
2850;SDS011;1433;49.976;8.342;2024-01-06T10:07:59;7.50;;;4.07;;
2850;SDS011;1433;49.976;8.342;2024-01-06T10:10:26;10.20;;;4.30;;
2850;SDS011;1433;49.976;8.342;2024-01-06T10:12:53;5.17;;;3.60;;
2850;SDS011;1433;49.976;8.342;2024-01-06T10:15:21;4.23;;;3.10;;
2850;SDS011;1433;49.976;8.342;2024-01-06T10:17:47;4.70;;;3.50;;
2850;SDS011;1433;49.976;8.342;2024-01-06T10:20:13;5.60;;;3.40;;
2850;SDS011;1433;49.976;8.342;2024-01-06T10:22:41;3.90;;;2.97;;
2850;SDS011;1433;49.976;8.342;2024-01-06T10:25:08;5.60;;;5.10;;
2850;SDS011;1433;49.976;8.342;2024-01-06T10:27:39;5.17;;;4.67;;
2850;SDS011;1433;49.976;8.342;2024-01-06T10:30:07;6.10;;;4.23;;
2850;SDS011;1433;49.976;8.342;2024-01-06T10:32:34;3.10;;;2.83;;
2850;SDS011;1433;49.976;8.342;2024-01-06T10:35:02;4.67;;;3.63;;
2850;SDS011;1433;49.976;8.342;2024-01-06T10:37:30;4.60;;;4.20;;
2850;SDS011;1433;49.976;8.342;2024-01-06T10:42:35;6.97;;;3.30;;
2850;SDS011;1433;49.976;8.342;2024-01-06T10:45:04;5.63;;;5.10;;
2850;SDS011;1433;49.976;8.342;2024-01-06T10:47:32;5.47;;;3.57;;
2850;SDS011;1433;49.976;8.342;2024-01-06T10:49:59;8.13;;;4.27;;
2850;SDS011;1433;49.976;8.342;2024-01-06T10:52:26;5.13;;;3.87;;
2850;SDS011;1433;49.976;8.342;2024-01-06T10:54:54;3.40;;;3.10;;
2850;SDS011;1433;49.976;8.342;2024-01-06T10:57:21;3.60;;;3.30;;
2850;SDS011;1433;49.976;8.342;2024-01-06T10:59:49;3.77;;;3.27;;
2850;SDS011;1433;49.976;8.342;2024-01-06T11:02:16;6.93;;;4.20;;
2850;SDS011;1433;49.976;8.342;2024-01-06T11:04:46;7.00;;;3.80;;
2850;SDS011;1433;49.976;8.342;2024-01-06T11:07:19;4.33;;;3.93;;
2850;SDS011;1433;49.976;8.342;2024-01-06T11:12:28;3.80;;;3.40;;
2850;SDS011;1433;49.976;8.342;2024-01-06T11:14:54;3.67;;;3.37;;
2850;SDS011;1433;49.976;8.342;2024-01-06T11:20:22;3.50;;;3.00;;
2850;SDS011;1433;49.976;8.342;2024-01-06T11:22:48;3.70;;;3.20;;
2850;SDS011;1433;49.976;8.342;2024-01-06T11:25:16;5.43;;;3.60;;
2850;SDS011;1433;49.976;8.342;2024-01-06T11:27:46;3.30;;;2.90;;
2850;SDS011;1433;49.976;8.342;2024-01-06T11:30:20;4.50;;;3.53;;
2850;SDS011;1433;49.976;8.342;2024-01-06T11:32:50;3.00;;;2.77;;
2850;SDS011;1433;49.976;8.342;2024-01-06T11:35:19;3.13;;;2.87;;
2850;SDS011;1433;49.976;8.342;2024-01-06T11:40:22;4.00;;;3.60;;
2850;SDS011;1433;49.976;8.342;2024-01-06T11:42:57;3.13;;;2.80;;
2850;SDS011;1433;49.976;8.342;2024-01-06T11:45:35;3.23;;;3.00;;
2850;SDS011;1433;49.976;8.342;2024-01-06T11:48:04;2.80;;;2.60;;
2850;SDS011;1433;49.976;8.342;2024-01-06T11:50:33;3.10;;;2.80;;
2850;SDS011;1433;49.976;8.342;2024-01-06T11:53:00;4.47;;;3.30;;
2850;SDS011;1433;49.976;8.342;2024-01-06T11:55:28;3.90;;;2.80;;
2850;SDS011;1433;49.976;8.342;2024-01-06T11:57:56;4.43;;;3.10;;
2850;SDS011;1433;49.976;8.342;2024-01-06T12:00:26;5.20;;;3.23;;
2850;SDS011;1433;49.976;8.342;2024-01-06T12:03:00;4.80;;;3.10;;
2850;SDS011;1433;49.976;8.342;2024-01-06T12:05:25;4.63;;;3.13;;
2850;SDS011;1433;49.976;8.342;2024-01-06T12:07:53;4.00;;;2.83;;
2850;SDS011;1433;49.976;8.342;2024-01-06T12:10:21;3.43;;;3.13;;
2850;SDS011;1433;49.976;8.342;2024-01-06T12:13:00;3.07;;;2.80;;
2850;SDS011;1433;49.976;8.342;2024-01-06T12:15:28;3.70;;;3.00;;
2850;SDS011;1433;49.976;8.342;2024-01-06T12:17:56;6.30;;;3.73;;
2850;SDS011;1433;49.976;8.342;2024-01-06T12:20:23;5.00;;;2.80;;
2850;SDS011;1433;49.976;8.342;2024-01-06T12:22:51;3.87;;;3.50;;
2850;SDS011;1433;49.976;8.342;2024-01-06T12:25:20;4.30;;;3.50;;
2850;SDS011;1433;49.976;8.342;2024-01-06T12:27:47;4.80;;;3.50;;
2850;SDS011;1433;49.976;8.342;2024-01-06T12:30:18;11.53;;;5.90;;
2850;SDS011;1433;49.976;8.342;2024-01-06T12:32:46;5.30;;;4.70;;
2850;SDS011;1433;49.976;8.342;2024-01-06T12:35:13;11.00;;;6.43;;
2850;SDS011;1433;49.976;8.342;2024-01-06T12:37:41;5.37;;;4.00;;
2850;SDS011;1433;49.976;8.342;2024-01-06T12:40:12;4.57;;;4.27;;
2850;SDS011;1433;49.976;8.342;2024-01-06T12:42:36;4.97;;;4.50;;
2850;SDS011;1433;49.976;8.342;2024-01-06T12:45:03;5.57;;;5.07;;
2850;SDS011;1433;49.976;8.342;2024-01-06T12:47:29;5.77;;;4.03;;
2850;SDS011;1433;49.976;8.342;2024-01-06T12:49:55;6.10;;;4.30;;
2850;SDS011;1433;49.976;8.342;2024-01-06T12:52:21;5.30;;;4.80;;
2850;SDS011;1433;49.976;8.342;2024-01-06T12:54:48;4.67;;;4.20;;
2850;SDS011;1433;49.976;8.342;2024-01-06T12:57:14;5.00;;;4.50;;
2850;SDS011;1433;49.976;8.342;2024-01-06T12:59:40;4.77;;;3.90;;
2850;SDS011;1433;49.976;8.342;2024-01-06T13:02:06;6.63;;;4.70;;
2850;SDS011;1433;49.976;8.342;2024-01-06T13:04:33;5.43;;;4.93;;
2850;SDS011;1433;49.976;8.342;2024-01-06T13:07:00;5.40;;;4.03;;
2850;SDS011;1433;49.976;8.342;2024-01-06T13:09:27;5.80;;;4.87;;
2850;SDS011;1433;49.976;8.342;2024-01-06T13:11:54;7.80;;;4.47;;
2850;SDS011;1433;49.976;8.342;2024-01-06T13:14:22;7.33;;;6.10;;
2850;SDS011;1433;49.976;8.342;2024-01-06T13:16:49;8.30;;;4.87;;
2850;SDS011;1433;49.976;8.342;2024-01-06T13:19:15;6.73;;;4.40;;
2850;SDS011;1433;49.976;8.342;2024-01-06T13:21:41;4.83;;;4.17;;
2850;SDS011;1433;49.976;8.342;2024-01-06T13:24:08;6.70;;;4.50;;
2850;SDS011;1433;49.976;8.342;2024-01-06T13:26:35;6.07;;;4.70;;
2850;SDS011;1433;49.976;8.342;2024-01-06T13:29:01;4.67;;;4.27;;
2850;SDS011;1433;49.976;8.342;2024-01-06T13:31:28;6.40;;;5.10;;
2850;SDS011;1433;49.976;8.342;2024-01-06T13:33:55;7.00;;;3.60;;
2850;SDS011;1433;49.976;8.342;2024-01-06T13:36:21;4.77;;;4.47;;
2850;SDS011;1433;49.976;8.342;2024-01-06T13:38:47;5.63;;;5.13;;
2850;SDS011;1433;49.976;8.342;2024-01-06T13:41:14;5.00;;;4.60;;
2850;SDS011;1433;49.976;8.342;2024-01-06T13:43:41;4.63;;;4.23;;
2850;SDS011;1433;49.976;8.342;2024-01-06T13:46:07;4.37;;;3.97;;
2850;SDS011;1433;49.976;8.342;2024-01-06T13:48:33;5.90;;;4.47;;
2850;SDS011;1433;49.976;8.342;2024-01-06T13:51:00;5.50;;;4.50;;
2850;SDS011;1433;49.976;8.342;2024-01-06T13:53:26;6.23;;;5.63;;
2850;SDS011;1433;49.976;8.342;2024-01-06T13:55:52;5.70;;;4.33;;
2850;SDS011;1433;49.976;8.342;2024-01-06T13:58:19;4.77;;;4.23;;
2850;SDS011;1433;49.976;8.342;2024-01-06T14:00:45;5.83;;;5.17;;
2850;SDS011;1433;49.976;8.342;2024-01-06T14:03:13;5.57;;;4.67;;
2850;SDS011;1433;49.976;8.342;2024-01-06T14:05:43;5.93;;;4.67;;
2850;SDS011;1433;49.976;8.342;2024-01-06T14:08:09;4.67;;;4.00;;
2850;SDS011;1433;49.976;8.342;2024-01-06T14:10:36;4.33;;;3.93;;
2850;SDS011;1433;49.976;8.342;2024-01-06T14:13:03;5.17;;;4.70;;
2850;SDS011;1433;49.976;8.342;2024-01-06T14:15:34;8.40;;;4.20;;
2850;SDS011;1433;49.976;8.342;2024-01-06T14:18:01;5.40;;;4.03;;
2850;SDS011;1433;49.976;8.342;2024-01-06T14:20:28;7.03;;;4.60;;
2850;SDS011;1433;49.976;8.342;2024-01-06T14:22:54;7.27;;;5.50;;
2850;SDS011;1433;49.976;8.342;2024-01-06T14:25:21;5.17;;;4.33;;
2850;SDS011;1433;49.976;8.342;2024-01-06T14:27:47;6.00;;;4.70;;
2850;SDS011;1433;49.976;8.342;2024-01-06T14:30:14;5.07;;;4.57;;
2850;SDS011;1433;49.976;8.342;2024-01-06T14:32:40;7.53;;;6.47;;
2850;SDS011;1433;49.976;8.342;2024-01-06T14:35:06;5.93;;;5.30;;
2850;SDS011;1433;49.976;8.342;2024-01-06T14:37:35;5.80;;;5.20;;
2850;SDS011;1433;49.976;8.342;2024-01-06T14:40:01;5.37;;;4.87;;
2850;SDS011;1433;49.976;8.342;2024-01-06T14:42:29;6.30;;;4.60;;
2850;SDS011;1433;49.976;8.342;2024-01-06T14:44:55;5.17;;;4.67;;
2850;SDS011;1433;49.976;8.342;2024-01-06T14:47:21;9.17;;;6.27;;
2850;SDS011;1433;49.976;8.342;2024-01-06T14:49:48;4.43;;;4.03;;
2850;SDS011;1433;49.976;8.342;2024-01-06T14:52:14;5.80;;;5.03;;
2850;SDS011;1433;49.976;8.342;2024-01-06T14:54:41;8.73;;;5.17;;
2850;SDS011;1433;49.976;8.342;2024-01-06T14:57:07;7.13;;;4.73;;
2850;SDS011;1433;49.976;8.342;2024-01-06T14:59:33;8.90;;;5.70;;
2850;SDS011;1433;49.976;8.342;2024-01-06T15:02:02;8.20;;;4.97;;
2850;SDS011;1433;49.976;8.342;2024-01-06T15:04:29;8.00;;;5.50;;
2850;SDS011;1433;49.976;8.342;2024-01-06T15:07:02;5.83;;;4.90;;
2850;SDS011;1433;49.976;8.342;2024-01-06T15:09:28;7.97;;;5.17;;
2850;SDS011;1433;49.976;8.342;2024-01-06T15:11:54;8.97;;;6.47;;
2850;SDS011;1433;49.976;8.342;2024-01-06T15:14:21;5.43;;;4.27;;
2850;SDS011;1433;49.976;8.342;2024-01-06T15:16:47;6.10;;;5.10;;
2850;SDS011;1433;49.976;8.342;2024-01-06T15:19:13;6.60;;;5.40;;
2850;SDS011;1433;49.976;8.342;2024-01-06T15:21:39;5.80;;;4.77;;
2850;SDS011;1433;49.976;8.342;2024-01-06T15:24:06;7.07;;;5.33;;